Belmont, Michigan
Current Conditions -  °F | °C
As of 7:53 AM on Tuesday 21 Oct 2014 (Local Time) from KGRR Reporting Station
Light Rain Light Rain  
Wind Chill: 43°   Ceiling: 900
Heat Index: 47°   Visibility: 10mi
Dew Point: 44°   Wind: 9mph
Humidity: 90%   Direction: 350°N
Pressure: 30.03"   Gusts: NA
Location:  43.08°N, 85.61°W
Report Text: KGRR 211153Z 35008KT 10SM -RA BKN009 OVC012 08/07 A3003 RMK AO2 RAE1058B21 SLP172 P0000 60000 T00830067 10089 20083 53020
Loading
Personal Weather Stations






























Interactive Weather Map
Tropical Storm Tracking
New forecast layout! Learn more

10-Day Weather Forecast

Advertisements
Track Severe Weather on mobile